Time;durP1;ratioP1;P1;durP2;ratioP2;P2;SDS_P1;SDS_P2;PMS_P1;PMS_P2;Temp;Humidity;BMP_temperature;BMP_pressure;BME280_temperature;BME280_humidity;BME280_pressure;Samples;Min_cycle;Max_cycle;Signal;HPM_P1;HPM_P2
2023/07/09 00:00:40;;;;;;;5.77;3.47;;;;;;;;;;5071454;28;20691;-87
2023/07/09 00:03:07;;;;;;;9.03;3.37;;;;;;;;;;5066589;28;20285;-88
2023/07/09 00:05:34;;;;;;;5.10;3.67;;;;;;;;;;5063274;28;20236;-88
2023/07/09 00:08:01;;;;;;;4.13;3.50;;;;;;;;;;5051713;28;20201;-88
2023/07/09 00:10:30;;;;;;;6.63;3.70;;;;;;;;;;5063598;28;20217;-87
2023/07/09 00:12:57;;;;;;;11.43;3.73;;;;;;;;;;5047828;28;20673;-88
2023/07/09 00:15:27;;;;;;;4.23;3.37;;;;;;;;;;5062944;28;20212;-88
2023/07/09 00:17:54;;;;;;;7.23;3.70;;;;;;;;;;5057261;28;20960;-89
2023/07/09 00:20:22;;;;;;;5.60;3.50;;;;;;;;;;5053926;28;20694;-87
2023/07/09 00:22:52;;;;;;;3.73;3.30;;;;;;;;;;5037395;28;20256;-88
2023/07/09 00:25:20;;;;;;;4.23;2.93;;;;;;;;;;5065574;28;20201;-87
2023/07/09 00:27:51;;;;;;;3.73;3.43;;;;;;;;;;5062884;28;20198;-88
2023/07/09 00:30:20;;;;;;;4.83;3.70;;;;;;;;;;5065386;28;20609;-89
2023/07/09 00:32:47;;;;;;;5.40;4.00;;;;;;;;;;5069921;28;20197;-88
2023/07/09 00:35:15;;;;;;;4.03;3.23;;;;;;;;;;5070102;28;20197;-88
2023/07/09 00:37:43;;;;;;;9.37;4.37;;;;;;;;;;5048464;28;20244;-89
2023/07/09 00:40:15;;;;;;;4.47;3.37;;;;;;;;;;5054834;28;20237;-86
2023/07/09 00:42:45;;;;;;;5.53;3.50;;;;;;;;;;5054624;28;20285;-88
2023/07/09 00:45:21;;;;;;;4.10;3.70;;;;;;;;;;5054608;28;20198;-88
2023/07/09 00:47:50;;;;;;;3.63;3.40;;;;;;;;;;5054631;28;20271;-88
2023/07/09 00:50:27;;;;;;;15.90;3.83;;;;;;;;;;5098363;28;20232;-88
2023/07/09 00:52:58;;;;;;;5.13;3.03;;;;;;;;;;5107904;28;20211;-88
2023/07/09 00:55:28;;;;;;;5.70;3.93;;;;;;;;;;5077249;28;20200;-88
2023/07/09 00:57:58;;;;;;;3.43;3.07;;;;;;;;;;5108225;28;20204;-88
2023/07/09 01:00:30;;;;;;;4.03;3.10;;;;;;;;;;5094841;28;20200;-88
2023/07/09 01:02:58;;;;;;;6.60;3.50;;;;;;;;;;5076897;28;20666;-88
2023/07/09 01:05:26;;;;;;;7.10;3.93;;;;;;;;;;5080699;28;20627;-88
2023/07/09 01:07:53;;;;;;;5.47;3.87;;;;;;;;;;5096451;28;20204;-88
2023/07/09 01:10:20;;;;;;;4.43;3.90;;;;;;;;;;5086451;28;20224;-88
2023/07/09 01:12:48;;;;;;;5.03;3.60;;;;;;;;;;5089605;28;20638;-88
2023/07/09 01:15:15;;;;;;;5.87;3.47;;;;;;;;;;5094520;28;20204;-89
2023/07/09 01:17:44;;;;;;;4.10;3.50;;;;;;;;;;5073920;28;20200;-88
2023/07/09 01:20:20;;;;;;;3.77;3.43;;;;;;;;;;5094410;28;20205;-89
2023/07/09 01:22:50;;;;;;;4.37;3.37;;;;;;;;;;5100063;28;20699;-89
2023/07/09 01:25:17;;;;;;;7.23;3.63;;;;;;;;;;5096341;28;20227;-88
2023/07/09 01:27:46;;;;;;;5.67;2.90;;;;;;;;;;5076386;28;20269;-89
2023/07/09 01:30:22;;;;;;;4.63;3.30;;;;;;;;;;5107316;28;20222;-88
2023/07/09 01:32:49;;;;;;;6.63;3.37;;;;;;;;;;5094404;28;20204;-88
2023/07/09 01:35:18;;;;;;;3.73;3.30;;;;;;;;;;5107799;28;20200;-88
2023/07/09 01:37:46;;;;;;;4.50;3.13;;;;;;;;;;5103524;28;20203;-89
2023/07/09 01:40:17;;;;;;;3.50;3.20;;;;;;;;;;5111376;28;20260;-89
2023/07/09 01:42:44;;;;;;;4.73;3.37;;;;;;;;;;5093849;28;20204;-89
2023/07/09 01:45:12;;;;;;;5.17;3.40;;;;;;;;;;5111195;28;20210;-88
2023/07/09 01:47:40;;;;;;;4.00;2.87;;;;;;;;;;5085821;28;20196;-88
2023/07/09 01:50:09;;;;;;;4.53;3.70;;;;;;;;;;5080185;28;20231;-88
2023/07/09 01:52:37;;;;;;;3.77;3.40;;;;;;;;;;5114043;28;20282;-89
2023/07/09 01:55:06;;;;;;;4.13;3.33;;;;;;;;;;5100392;28;20216;-86
2023/07/09 01:57:34;;;;;;;4.40;3.20;;;;;;;;;;5102359;28;20205;-89
2023/07/09 02:00:04;;;;;;;3.87;3.40;;;;;;;;;;5095028;28;20253;-87
2023/07/09 02:02:32;;;;;;;3.13;2.87;;;;;;;;;;5101141;28;20200;-89
2023/07/09 02:04:59;;;;;;;3.47;3.17;;;;;;;;;;5113265;28;20230;-89
2023/07/09 02:07:26;;;;;;;4.77;4.10;;;;;;;;;;5100727;28;20200;-89
2023/07/09 02:09:53;;;;;;;5.33;4.10;;;;;;;;;;5082699;28;20211;-89
2023/07/09 02:12:22;;;;;;;4.93;3.13;;;;;;;;;;5113398;28;20223;-89
2023/07/09 02:14:50;;;;;;;4.70;3.30;;;;;;;;;;5076226;28;20212;-88
2023/07/09 02:17:18;;;;;;;3.73;3.30;;;;;;;;;;5093619;28;20208;-89
2023/07/09 02:19:45;;;;;;;5.33;3.40;;;;;;;;;;5083381;28;20204;-90
2023/07/09 02:22:12;;;;;;;5.73;3.53;;;;;;;;;;5094672;28;20214;-89
2023/07/09 02:24:39;;;;;;;4.20;3.37;;;;;;;;;;5101705;28;20207;-89
2023/07/09 02:27:10;;;;;;;11.70;3.37;;;;;;;;;;5099310;28;20218;-88
2023/07/09 02:29:37;;;;;;;3.13;2.83;;;;;;;;;;5104831;28;20212;-89
2023/07/09 02:32:08;;;;;;;3.30;3.00;;;;;;;;;;5088399;28;20231;-89
2023/07/09 02:34:35;;;;;;;4.93;3.33;;;;;;;;;;5068446;28;20286;-85
2023/07/09 02:37:03;;;;;;;5.13;2.97;;;;;;;;;;5098995;28;20264;-89
2023/07/09 02:39:30;;;;;;;2.97;2.77;;;;;;;;;;5085077;28;20328;-89
2023/07/09 02:41:57;;;;;;;6.83;2.87;;;;;;;;;;5088751;28;20249;-89
2023/07/09 02:44:24;;;;;;;3.53;2.70;;;;;;;;;;5058691;28;20234;-90
2023/07/09 02:46:52;;;;;;;5.97;3.77;;;;;;;;;;5078365;28;20196;-87
2023/07/09 02:49:20;;;;;;;4.07;3.20;;;;;;;;;;5064741;28;20216;-89
2023/07/09 02:51:47;;;;;;;6.90;3.17;;;;;;;;;;5112315;28;20286;-88
2023/07/09 02:54:14;;;;;;;5.50;3.30;;;;;;;;;;5093560;28;20207;-89
2023/07/09 02:56:41;;;;;;;3.87;3.53;;;;;;;;;;5094247;28;20661;-88
2023/07/09 02:59:09;;;;;;;5.03;3.40;;;;;;;;;;5094256;28;20200;-87
2023/07/09 03:01:35;;;;;;;3.23;2.97;;;;;;;;;;5112745;28;20585;-88
2023/07/09 03:04:03;;;;;;;4.43;3.03;;;;;;;;;;5098859;28;20197;-88
2023/07/09 03:06:34;;;;;;;3.97;3.50;;;;;;;;;;5099825;28;20673;-89
2023/07/09 03:09:01;;;;;;;4.70;3.10;;;;;;;;;;5099139;28;20291;-89
2023/07/09 03:11:31;;;;;;;4.30;3.60;;;;;;;;;;5104201;28;20224;-89
2023/07/09 03:13:58;;;;;;;3.30;3.00;;;;;;;;;;5107871;28;20246;-89
2023/07/09 03:16:25;;;;;;;4.57;3.27;;;;;;;;;;5095118;28;20685;-89
2023/07/09 03:18:52;;;;;;;6.70;3.83;;;;;;;;;;5096331;28;20208;-90
2023/07/09 03:21:19;;;;;;;6.00;3.20;;;;;;;;;;5092167;28;20208;-89
2023/07/09 03:23:47;;;;;;;4.17;3.37;;;;;;;;;;5087083;28;20204;-84
2023/07/09 03:26:14;;;;;;;5.53;3.23;;;;;;;;;;5102460;28;20203;-84
2023/07/09 03:28:41;;;;;;;4.20;3.10;;;;;;;;;;5092846;28;20204;-84
2023/07/09 03:31:08;;;;;;;4.30;3.70;;;;;;;;;;5111539;28;20284;-84
2023/07/09 03:33:35;;;;;;;7.27;3.47;;;;;;;;;;5111088;28;20200;-89
2023/07/09 03:36:04;;;;;;;5.13;3.93;;;;;;;;;;5103530;28;20261;-90
2023/07/09 03:38:31;;;;;;;3.77;3.40;;;;;;;;;;5105273;28;20690;-89
2023/07/09 03:41:00;;;;;;;8.00;3.33;;;;;;;;;;5101526;28;20584;-89
2023/07/09 03:43:26;;;;;;;4.03;3.73;;;;;;;;;;5112015;28;20241;-90
2023/07/09 03:45:53;;;;;;;7.90;4.10;;;;;;;;;;5084010;28;20204;-89
2023/07/09 03:48:21;;;;;;;4.40;3.53;;;;;;;;;;5094896;28;20204;-90
2023/07/09 03:50:49;;;;;;;7.40;3.50;;;;;;;;;;5112075;28;20235;-90
2023/07/09 03:53:16;;;;;;;3.80;3.13;;;;;;;;;;5111672;28;20199;-90
2023/07/09 03:55:43;;;;;;;3.77;3.10;;;;;;;;;;5094296;28;20207;-90
2023/07/09 03:58:12;;;;;;;4.53;3.60;;;;;;;;;;5094117;28;20208;-90
2023/07/09 04:00:40;;;;;;;4.70;3.70;;;;;;;;;;5082184;28;20590;-89
2023/07/09 04:03:08;;;;;;;9.80;3.87;;;;;;;;;;5092205;28;20207;-84
2023/07/09 04:05:36;;;;;;;5.10;4.30;;;;;;;;;;5077534;28;20737;-89
2023/07/09 04:08:03;;;;;;;4.53;3.23;;;;;;;;;;5112030;28;20196;-89
2023/07/09 04:10:31;;;;;;;3.57;2.87;;;;;;;;;;5082085;28;20196;-88
2023/07/09 04:12:57;;;;;;;3.80;3.50;;;;;;;;;;5084100;28;20223;-90
2023/07/09 04:15:26;;;;;;;4.07;3.37;;;;;;;;;;5115831;28;20211;-89
2023/07/09 04:17:53;;;;;;;3.43;3.13;;;;;;;;;;5109092;28;20215;-88
2023/07/09 04:20:20;;;;;;;5.33;3.97;;;;;;;;;;5061217;28;20196;-90
2023/07/09 04:22:47;;;;;;;3.57;3.23;;;;;;;;;;5085234;28;20681;-89
2023/07/09 04:25:14;;;;;;;3.43;3.13;;;;;;;;;;5098089;28;20260;-89
2023/07/09 04:27:42;;;;;;;3.07;2.87;;;;;;;;;;5097930;28;20211;-89
2023/07/09 04:30:11;;;;;;;3.50;3.20;;;;;;;;;;5097678;28;20229;-88
2023/07/09 04:32:41;;;;;;;8.50;3.53;;;;;;;;;;5077634;28;20227;-85
2023/07/09 04:35:08;;;;;;;6.23;4.60;;;;;;;;;;5092097;28;20677;-90
2023/07/09 04:37:35;;;;;;;10.43;7.37;;;;;;;;;;5085231;28;20195;-90
2023/07/09 04:40:06;;;;;;;5.30;4.37;;;;;;;;;;5100987;28;20586;-88
2023/07/09 04:42:34;;;;;;;3.67;3.37;;;;;;;;;;5103247;28;20207;-90
2023/07/09 04:45:01;;;;;;;16.53;13.67;;;;;;;;;;5065769;28;20265;-90
2023/07/09 04:47:28;;;;;;;22.93;17.73;;;;;;;;;;5094699;28;20204;-89
2023/07/09 04:49:57;;;;;;;11.67;8.77;;;;;;;;;;5110545;28;20348;-90
2023/07/09 04:52:24;;;;;;;7.17;6.47;;;;;;;;;;5115374;28;20223;-90
2023/07/09 04:54:51;;;;;;;5.90;4.60;;;;;;;;;;5080804;28;20265;-90
2023/07/09 04:57:18;;;;;;;4.43;4.03;;;;;;;;;;5076344;28;20628;-89
2023/07/09 04:59:45;;;;;;;4.40;3.47;;;;;;;;;;5096909;28;20192;-88
2023/07/09 05:02:13;;;;;;;4.43;4.03;;;;;;;;;;5114305;28;20207;-89
2023/07/09 05:04:40;;;;;;;5.83;4.10;;;;;;;;;;5082703;28;20195;-90
2023/07/09 05:07:08;;;;;;;5.10;4.00;;;;;;;;;;5114282;28;20204;-89
2023/07/09 05:09:35;;;;;;;4.50;4.10;;;;;;;;;;5110241;28;20211;-90
2023/07/09 05:12:02;;;;;;;5.63;3.90;;;;;;;;;;5087537;28;20705;-90
2023/07/09 05:14:29;;;;;;;3.47;3.17;;;;;;;;;;5114755;28;20199;-91
2023/07/09 05:16:57;;;;;;;4.50;4.10;;;;;;;;;;5088521;28;20204;-89
2023/07/09 05:19:24;;;;;;;4.83;3.53;;;;;;;;;;5086987;28;20678;-90
2023/07/09 05:21:51;;;;;;;4.43;3.67;;;;;;;;;;5079348;28;20206;-89
2023/07/09 05:24:20;;;;;;;6.87;3.10;;;;;;;;;;5095498;28;20207;-89
2023/07/09 05:26:47;;;;;;;4.20;3.77;;;;;;;;;;5096783;28;20210;-90
2023/07/09 05:29:14;;;;;;;3.87;3.50;;;;;;;;;;5114531;28;20637;-90
2023/07/09 05:31:42;;;;;;;6.27;3.43;;;;;;;;;;5114636;28;20692;-85
2023/07/09 05:34:09;;;;;;;3.77;3.47;;;;;;;;;;5079713;28;20282;-92
2023/07/09 05:36:36;;;;;;;4.83;3.40;;;;;;;;;;5114741;28;20207;-90
2023/07/09 05:39:04;;;;;;;4.27;3.87;;;;;;;;;;5088927;28;20211;-90
2023/07/09 05:41:32;;;;;;;7.70;4.80;;;;;;;;;;5091609;28;20678;-90
2023/07/09 05:43:59;;;;;;;4.00;3.63;;;;;;;;;;5113984;28;20203;-90
2023/07/09 05:46:26;;;;;;;5.00;4.00;;;;;;;;;;5113859;28;20203;-90
2023/07/09 05:48:53;;;;;;;4.30;4.00;;;;;;;;;;5113292;28;20235;-91
2023/07/09 05:51:21;;;;;;;4.03;3.47;;;;;;;;;;5095390;28;20254;-90
2023/07/09 05:53:48;;;;;;;3.67;3.37;;;;;;;;;;5075618;28;20307;-90
2023/07/09 05:56:15;;;;;;;4.73;3.67;;;;;;;;;;5075215;28;20200;-80
2023/07/09 05:58:44;;;;;;;4.73;3.80;;;;;;;;;;5105990;28;20265;-81
2023/07/09 06:01:11;;;;;;;4.87;3.27;;;;;;;;;;5075074;28;20238;-80
2023/07/09 06:03:38;;;;;;;4.00;2.97;;;;;;;;;;5087958;28;20203;-80
2023/07/09 06:06:06;;;;;;;4.00;3.63;;;;;;;;;;5112860;28;20203;-80
2023/07/09 06:08:33;;;;;;;3.53;3.23;;;;;;;;;;5112390;28;20281;-81
2023/07/09 06:11:03;;;;;;;3.77;3.40;;;;;;;;;;5094116;28;20215;-80
2023/07/09 06:13:31;;;;;;;4.23;3.80;;;;;;;;;;5077125;28;20229;-81
2023/07/09 06:16:04;;;;;;;4.50;3.23;;;;;;;;;;5112094;28;20203;-79
2023/07/09 06:18:34;;;;;;;3.40;3.10;;;;;;;;;;5111727;28;20221;-80
2023/07/09 06:21:03;;;;;;;6.33;3.30;;;;;;;;;;5112045;28;20272;-81
2023/07/09 06:23:31;;;;;;;6.33;3.10;;;;;;;;;;5094209;28;20203;-80
2023/07/09 06:25:59;;;;;;;3.63;3.27;;;;;;;;;;5081123;28;20278;-81
2023/07/09 06:28:30;;;;;;;4.13;3.10;;;;;;;;;;5093878;28;20563;-80
2023/07/09 06:30:57;;;;;;;5.10;3.87;;;;;;;;;;5094501;28;20199;-81
2023/07/09 06:33:26;;;;;;;4.80;3.27;;;;;;;;;;5079974;28;20227;-81
2023/07/09 06:35:54;;;;;;;3.00;2.80;;;;;;;;;;5104848;28;20212;-81
2023/07/09 06:38:24;;;;;;;5.37;3.20;;;;;;;;;;5105660;28;20215;-81
2023/07/09 06:40:51;;;;;;;3.23;2.93;;;;;;;;;;5112154;28;20253;-81
2023/07/09 06:43:18;;;;;;;4.93;3.13;;;;;;;;;;5111773;28;20196;-81
2023/07/09 06:45:53;;;;;;;4.43;3.43;;;;;;;;;;5112578;28;20199;-81
2023/07/09 06:48:20;;;;;;;3.50;3.20;;;;;;;;;;5094957;28;20645;-81
2023/07/09 06:50:49;;;;;;;5.83;3.37;;;;;;;;;;5101844;28;20227;-80
2023/07/09 06:53:16;;;;;;;4.30;4.00;;;;;;;;;;5076866;28;20697;-81
2023/07/09 06:55:44;;;;;;;3.70;3.10;;;;;;;;;;5093721;28;20199;-81
2023/07/09 06:58:11;;;;;;;4.90;3.53;;;;;;;;;;5075821;28;20329;-81
2023/07/09 07:00:38;;;;;;;4.07;2.87;;;;;;;;;;5084233;28;20207;-81
2023/07/09 07:03:06;;;;;;;5.13;3.60;;;;;;;;;;5079572;28;20200;-82
2023/07/09 07:05:33;;;;;;;3.67;3.30;;;;;;;;;;5093888;28;20196;-81
2023/07/09 07:08:03;;;;;;;2.93;2.73;;;;;;;;;;5092694;28;20609;-82
2023/07/09 07:10:30;;;;;;;3.10;2.90;;;;;;;;;;5091498;28;20204;-81
2023/07/09 07:12:57;;;;;;;3.10;2.77;;;;;;;;;;5092656;28;20614;-81
2023/07/09 07:15:24;;;;;;;3.37;3.07;;;;;;;;;;5098384;28;20208;-81
2023/07/09 07:17:51;;;;;;;3.57;2.10;;;;;;;;;;5086834;28;20204;-82
2023/07/09 07:20:18;;;;;;;7.07;2.67;;;;;;;;;;5069789;28;20207;-82
2023/07/09 07:22:46;;;;;;;4.37;2.93;;;;;;;;;;5091102;28;20675;-83
2023/07/09 07:25:15;;;;;;;3.33;2.87;;;;;;;;;;5105785;28;20240;-82
2023/07/09 07:27:42;;;;;;;3.00;2.80;;;;;;;;;;5085279;28;20891;-82
2023/07/09 07:30:11;;;;;;;2.50;2.30;;;;;;;;;;5086629;28;20264;-83
2023/07/09 07:32:39;;;;;;;2.60;2.33;;;;;;;;;;5096785;28;21109;-81
2023/07/09 07:35:09;;;;;;;3.50;2.43;;;;;;;;;;5097297;28;20204;-79
2023/07/09 07:37:35;;;;;;;2.67;2.47;;;;;;;;;;5098951;28;20560;-80
2023/07/09 07:40:04;;;;;;;6.17;2.70;;;;;;;;;;5095918;28;20200;-79
2023/07/09 07:42:32;;;;;;;2.80;2.60;;;;;;;;;;5090454;28;20204;-79
2023/07/09 07:44:59;;;;;;;2.47;2.27;;;;;;;;;;5104145;28;20200;-79
2023/07/09 07:47:27;;;;;;;3.13;2.47;;;;;;;;;;5098827;28;20601;-79
2023/07/09 07:49:54;;;;;;;2.53;2.30;;;;;;;;;;5108344;28;20688;-79
2023/07/09 07:52:21;;;;;;;2.63;2.43;;;;;;;;;;5090291;28;20207;-80
2023/07/09 07:54:48;;;;;;;2.83;2.57;;;;;;;;;;5105052;28;21632;-79
2023/07/09 07:57:15;;;;;;;3.60;2.40;;;;;;;;;;5100402;28;20199;-79
2023/07/09 07:59:46;;;;;;;3.30;2.33;;;;;;;;;;5075864;28;20203;-79
2023/07/09 08:02:14;;;;;;;2.20;2.10;;;;;;;;;;5073336;28;20250;-79
2023/07/09 08:04:42;;;;;;;3.60;2.50;;;;;;;;;;5102388;28;20212;-80
2023/07/09 08:07:09;;;;;;;3.93;3.23;;;;;;;;;;5090219;28;20196;-79
2023/07/09 08:09:37;;;;;;;2.77;2.57;;;;;;;;;;5104476;28;20261;-79
2023/07/09 08:12:09;;;;;;;4.07;2.50;;;;;;;;;;5103065;28;20207;-80
2023/07/09 08:14:36;;;;;;;3.03;2.53;;;;;;;;;;5111004;28;20238;-79
2023/07/09 08:17:06;;;;;;;2.75;2.55;;;;;;;;;;5110708;28;20206;-79
2023/07/09 08:19:33;;;;;;;2.63;2.43;;;;;;;;;;5103421;28;20560;-80
2023/07/09 08:22:00;;;;;;;6.67;2.47;;;;;;;;;;5104780;28;20203;-79
2023/07/09 08:24:27;;;;;;;4.50;2.77;;;;;;;;;;5084873;28;20209;-80
2023/07/09 08:26:56;;;;;;;2.88;2.67;;;;;;;;;;5104243;28;20195;-79
2023/07/09 08:29:23;;;;;;;2.60;2.37;;;;;;;;;;5079653;28;20206;-79
2023/07/09 08:31:50;;;;;;;3.50;2.50;;;;;;;;;;5092042;28;20203;-80
2023/07/09 08:34:19;;;;;;;4.67;2.70;;;;;;;;;;5080047;28;20441;-79
2023/07/09 08:36:46;;;;;;;3.87;2.70;;;;;;;;;;5095391;28;20207;-79
2023/07/09 08:39:15;;;;;;;5.63;3.10;;;;;;;;;;5080622;28;20199;-79
2023/07/09 08:41:46;;;;;;;3.00;2.70;;;;;;;;;;5090755;28;20726;-79
2023/07/09 08:44:46;;;;;;;4.43;2.60;;;;;;;;;;5099429;28;20636;-79
2023/07/09 08:47:18;;;;;;;3.07;2.67;;;;;;;;;;5085124;28;20659;-79
2023/07/09 08:49:50;;;;;;;3.10;2.33;;;;;;;;;;5085918;28;20231;-79
2023/07/09 08:52:23;;;;;;;2.77;2.57;;;;;;;;;;5090581;28;20223;-81
2023/07/09 08:54:51;;;;;;;2.90;2.70;;;;;;;;;;5106639;28;20578;-80
2023/07/09 08:57:23;;;;;;;3.93;2.57;;;;;;;;;;5102124;28;20592;-79
2023/07/09 08:59:51;;;;;;;9.87;2.60;;;;;;;;;;5080728;28;20192;-78
2023/07/09 09:02:29;;;;;;;3.80;2.95;;;;;;;;;;5113331;28;20215;-79
2023/07/09 09:04:58;;;;;;;4.07;2.60;;;;;;;;;;5107604;28;20192;-82
2023/07/09 09:07:33;;;;;;;2.92;2.00;;;;;;;;;;5087900;28;20686;-82
2023/07/09 09:10:03;;;;;;;2.87;2.53;;;;;;;;;;5108319;28;20608;-79
2023/07/09 09:12:33;;;;;;;3.47;2.40;;;;;;;;;;5075841;28;20215;-79
2023/07/09 09:15:04;;;;;;;2.40;2.20;;;;;;;;;;5102935;28;20620;-79
2023/07/09 09:17:34;;;;;;;3.70;2.73;;;;;;;;;;5096369;28;20208;-79
2023/07/09 09:20:08;;;;;;;2.50;2.30;;;;;;;;;;5070236;28;20199;-79
2023/07/09 09:22:43;;;;;;;3.40;2.57;;;;;;;;;;5113308;28;20669;-79
2023/07/09 09:25:19;;;;;;;2.95;2.60;;;;;;;;;;5082574;28;20200;-79
2023/07/09 09:27:47;;;;;;;3.10;2.70;;;;;;;;;;5075279;28;20199;-78
2023/07/09 09:30:15;;;;;;;3.43;2.40;;;;;;;;;;5076046;28;20325;-78
2023/07/09 09:32:45;;;;;;;3.10;2.63;;;;;;;;;;5087449;28;20265;-79
2023/07/09 09:35:16;;;;;;;2.57;2.37;;;;;;;;;;5095013;28;20204;-79
2023/07/09 09:37:50;;;;;;;6.93;2.80;;;;;;;;;;5074794;28;20570;-78
2023/07/09 09:40:21;;;;;;;3.63;2.47;;;;;;;;;;5078685;28;20206;-79
2023/07/09 09:42:49;;;;;;;2.92;2.72;;;;;;;;;;5113245;28;20210;-79
2023/07/09 09:45:18;;;;;;;2.88;2.67;;;;;;;;;;5095019;28;20200;-79
2023/07/09 09:47:46;;;;;;;3.13;2.45;;;;;;;;;;5092758;28;20200;-79
2023/07/09 09:50:16;;;;;;;4.03;2.25;;;;;;;;;;5106265;28;20733;-79
2023/07/09 09:52:47;;;;;;;3.25;2.30;;;;;;;;;;5106642;28;20693;-79
2023/07/09 09:55:20;;;;;;;2.95;2.72;;;;;;;;;;5095142;28;20204;-79
2023/07/09 09:57:51;;;;;;;3.13;2.80;;;;;;;;;;5066082;28;20205;-79
2023/07/09 10:00:20;;;;;;;2.05;1.95;;;;;;;;;;5090792;28;20196;-79
2023/07/09 10:02:47;;;;;;;3.63;2.85;;;;;;;;;;5105923;28;20204;-79
2023/07/09 10:05:16;;;;;;;3.45;2.65;;;;;;;;;;5111841;28;20227;-79
2023/07/09 10:07:49;;;;;;;2.60;2.40;;;;;;;;;;5097645;28;20200;-79
2023/07/09 10:10:19;;;;;;;4.47;2.75;;;;;;;;;;5106501;28;20291;-79
2023/07/09 10:12:52;;;;;;;2.72;2.35;;;;;;;;;;5086044;28;20592;-79
2023/07/09 10:15:27;;;;;;;2.50;2.13;;;;;;;;;;5088932;28;20740;-79
2023/07/09 10:17:57;;;;;;;3.58;2.95;;;;;;;;;;5092348;28;20893;-79
2023/07/09 10:20:31;;;;;;;2.60;2.40;;;;;;;;;;5082114;28;20203;-79
2023/07/09 10:23:04;;;;;;;2.70;2.50;;;;;;;;;;5098763;28;20204;-79
2023/07/09 10:25:37;;;;;;;5.65;2.70;;;;;;;;;;5077944;28;20269;-79
2023/07/09 10:28:40;;;;;;;2.78;2.40;;;;;;;;;;5082947;28;20254;-79
2023/07/09 10:31:14;;;;;;;3.60;2.25;;;;;;;;;;5084796;28;20207;-80
2023/07/09 10:33:54;;;;;;;3.60;2.42;;;;;;;;;;5086384;28;20219;-79
2023/07/09 10:36:33;;;;;;;3.00;2.80;;;;;;;;;;5108887;28;20278;-79
2023/07/09 10:39:04;;;;;;;2.58;2.38;;;;;;;;;;5111328;28;20203;-78
2023/07/09 10:41:32;;;;;;;2.83;2.60;;;;;;;;;;5112365;28;20214;-80
2023/07/09 10:44:02;;;;;;;3.65;2.30;;;;;;;;;;5111714;28;20198;-79
2023/07/09 10:46:34;;;;;;;5.70;2.40;;;;;;;;;;5077497;28;20381;-80
2023/07/09 10:49:02;;;;;;;4.47;3.10;;;;;;;;;;5111638;28;20228;-79
2023/07/09 10:51:34;;;;;;;2.25;2.08;;;;;;;;;;5111877;28;20203;-80
2023/07/09 10:54:04;;;;;;;2.97;2.53;;;;;;;;;;5111768;28;20234;-79
2023/07/09 10:56:35;;;;;;;3.80;2.50;;;;;;;;;;5077211;28;20199;-80
2023/07/09 10:59:06;;;;;;;4.57;2.60;;;;;;;;;;5087768;28;20208;-80
2023/07/09 11:01:36;;;;;;;3.58;2.50;;;;;;;;;;5111691;28;20693;-80
2023/07/09 11:04:07;;;;;;;2.70;2.50;;;;;;;;;;5093768;28;20203;-80
2023/07/09 11:06:38;;;;;;;2.15;2.03;;;;;;;;;;5111896;28;20203;-80
2023/07/09 11:09:24;;;;;;;2.22;2.03;;;;;;;;;;5093231;28;20696;-80
2023/07/09 11:11:55;;;;;;;4.45;2.33;;;;;;;;;;5111943;28;20199;-79
2023/07/09 11:14:27;;;;;;;3.88;2.75;;;;;;;;;;5111533;28;20215;-80
2023/07/09 11:16:56;;;;;;;3.25;2.90;;;;;;;;;;5093386;28;20203;-79
2023/07/09 11:19:23;;;;;;;2.78;2.47;;;;;;;;;;5106660;28;20201;-79
2023/07/09 11:22:08;;;;;;;2.80;2.60;;;;;;;;;;5088341;28;20665;-79
2023/07/09 11:24:37;;;;;;;3.33;2.33;;;;;;;;;;5111865;28;20203;-79
2023/07/09 11:27:21;;;;;;;3.03;2.83;;;;;;;;;;5110026;28;20252;-79
2023/07/09 11:29:49;;;;;;;2.55;2.35;;;;;;;;;;5108502;28;20226;-79
2023/07/09 11:32:20;;;;;;;2.92;2.67;;;;;;;;;;5093141;28;20210;-79
2023/07/09 11:34:47;;;;;;;3.53;2.90;;;;;;;;;;5093067;28;20227;-79
2023/07/09 11:37:16;;;;;;;3.30;2.92;;;;;;;;;;5110605;28;20223;-79
2023/07/09 11:39:46;;;;;;;3.35;2.63;;;;;;;;;;5111324;28;20207;-79
2023/07/09 11:42:33;;;;;;;2.85;2.65;;;;;;;;;;5085320;28;20269;-80
2023/07/09 11:45:06;;;;;;;3.15;2.22;;;;;;;;;;5093176;28;20210;-80
2023/07/09 11:47:37;;;;;;;3.00;2.70;;;;;;;;;;5110580;28;20692;-80
2023/07/09 11:50:07;;;;;;;2.33;2.13;;;;;;;;;;5101364;28;20724;-79
2023/07/09 11:52:40;;;;;;;2.90;2.20;;;;;;;;;;5107130;28;20199;-80
2023/07/09 11:55:23;;;;;;;4.07;2.33;;;;;;;;;;5088287;28;20219;-80
2023/07/09 11:57:50;;;;;;;3.20;2.92;;;;;;;;;;5075641;28;20199;-80
2023/07/09 12:00:18;;;;;;;2.78;2.42;;;;;;;;;;5110566;28;20208;-79
2023/07/09 12:02:45;;;;;;;4.05;2.53;;;;;;;;;;5110239;28;20677;-80
2023/07/09 12:05:22;;;;;;;3.83;2.65;;;;;;;;;;5092789;28;20256;-80
2023/07/09 12:07:51;;;;;;;3.20;2.88;;;;;;;;;;5093372;28;20227;-79
2023/07/09 12:10:22;;;;;;;10.07;2.70;;;;;;;;;;5086390;28;21039;-80
2023/07/09 12:12:49;;;;;;;2.55;2.22;;;;;;;;;;5084773;28;20200;-79
2023/07/09 12:15:19;;;;;;;2.75;2.55;;;;;;;;;;5107529;28;20230;-80
2023/07/09 12:17:54;;;;;;;2.83;2.58;;;;;;;;;;5092520;28;20223;-80
2023/07/09 12:20:22;;;;;;;3.58;2.70;;;;;;;;;;5110979;28;20203;-79
2023/07/09 12:22:50;;;;;;;3.10;2.80;;;;;;;;;;5106567;28;20619;-79
2023/07/09 12:25:23;;;;;;;3.97;2.78;;;;;;;;;;5109574;28;20199;-80
2023/07/09 12:27:50;;;;;;;3.30;2.83;;;;;;;;;;5109217;28;20213;-79
2023/07/09 12:30:18;;;;;;;3.35;3.05;;;;;;;;;;5099321;28;20226;-79
2023/07/09 12:32:46;;;;;;;4.03;3.58;;;;;;;;;;5094748;28;20278;-79
2023/07/09 12:35:14;;;;;;;4.38;2.92;;;;;;;;;;5096630;28;20219;-79
2023/07/09 12:37:43;;;;;;;3.78;2.95;;;;;;;;;;5095831;28;20204;-79
2023/07/09 12:40:16;;;;;;;3.10;2.50;;;;;;;;;;5096557;28;20200;-78
2023/07/09 12:42:44;;;;;;;3.50;3.20;;;;;;;;;;5093677;28;20199;-81
2023/07/09 12:45:16;;;;;;;3.63;3.33;;;;;;;;;;5079624;28;20199;-82
2023/07/09 12:47:44;;;;;;;5.85;2.95;;;;;;;;;;5075607;28;20258;-79
2023/07/09 12:50:25;;;;;;;4.43;2.53;;;;;;;;;;5107115;28;20731;-81
2023/07/09 12:52:52;;;;;;;3.08;2.78;;;;;;;;;;5107964;28;20252;-80
2023/07/09 12:55:26;;;;;;;3.05;2.85;;;;;;;;;;5096408;28;20716;-80
2023/07/09 12:57:56;;;;;;;3.25;2.95;;;;;;;;;;5095887;28;20206;-79
2023/07/09 13:00:23;;;;;;;2.60;2.40;;;;;;;;;;5079714;28;20240;-79
2023/07/09 13:02:55;;;;;;;2.65;2.03;;;;;;;;;;5113480;28;20200;-81
2023/07/09 13:05:25;;;;;;;3.00;2.80;;;;;;;;;;5113929;28;20195;-80
2023/07/09 13:07:54;;;;;;;3.95;2.78;;;;;;;;;;5107757;28;20200;-79
2023/07/09 13:10:26;;;;;;;3.45;3.15;;;;;;;;;;5093551;28;20208;-80
2023/07/09 13:12:56;;;;;;;3.17;2.88;;;;;;;;;;5084409;28;20260;-81
2023/07/09 13:15:29;;;;;;;6.30;3.35;;;;;;;;;;5114084;28;20247;-80
2023/07/09 13:18:00;;;;;;;4.05;3.13;;;;;;;;;;5110535;28;20587;-80
2023/07/09 13:20:28;;;;;;;3.08;2.60;;;;;;;;;;5113190;28;20196;-80
2023/07/09 13:22:55;;;;;;;2.67;2.47;;;;;;;;;;5113356;28;20204;-79
2023/07/09 13:25:23;;;;;;;3.63;3.13;;;;;;;;;;5089091;28;20593;-80
2023/07/09 13:27:51;;;;;;;3.47;3.17;;;;;;;;;;5080341;28;20660;-79
2023/07/09 13:30:19;;;;;;;3.25;2.95;;;;;;;;;;5092998;28;20591;-79
2023/07/09 13:32:47;;;;;;;4.90;3.15;;;;;;;;;;5088378;28;20203;-80
2023/07/09 13:35:18;;;;;;;3.65;3.00;;;;;;;;;;5111656;28;20208;-79
2023/07/09 13:37:45;;;;;;;2.95;2.70;;;;;;;;;;5113065;28;20732;-79
2023/07/09 13:40:13;;;;;;;5.85;3.03;;;;;;;;;;5078031;28;20203;-79
2023/07/09 13:42:42;;;;;;;3.08;2.85;;;;;;;;;;5076057;28;20666;-80
2023/07/09 13:45:20;;;;;;;2.70;2.50;;;;;;;;;;5113319;28;20195;-79
2023/07/09 13:47:48;;;;;;;3.03;2.83;;;;;;;;;;5112807;28;20563;-80
2023/07/09 13:50:16;;;;;;;3.13;2.83;;;;;;;;;;5100776;28;20260;-79
2023/07/09 13:52:46;;;;;;;3.38;3.08;;;;;;;;;;5092593;28;20212;-79
2023/07/09 13:55:19;;;;;;;2.92;2.67;;;;;;;;;;5087599;28;20604;-79
2023/07/09 13:57:46;;;;;;;3.53;2.70;;;;;;;;;;5095136;28;20656;-79
2023/07/09 14:00:14;;;;;;;2.60;2.40;;;;;;;;;;5099174;28;20204;-79
2023/07/09 14:02:43;;;;;;;2.70;2.50;;;;;;;;;;5086635;28;20678;-79
2023/07/09 14:05:11;;;;;;;2.83;2.63;;;;;;;;;;5107106;28;20216;-79
2023/07/09 14:07:40;;;;;;;2.60;2.40;;;;;;;;;;5103418;28;20209;-79
2023/07/09 14:10:11;;;;;;;3.70;2.78;;;;;;;;;;5105905;28;20587;-79
2023/07/09 14:12:42;;;;;;;4.70;3.58;;;;;;;;;;5092288;28;20204;-79
2023/07/09 14:15:14;;;;;;;3.10;2.83;;;;;;;;;;5078876;28;20261;-80
2023/07/09 14:17:43;;;;;;;3.65;3.10;;;;;;;;;;5100672;28;20199;-79
2023/07/09 14:20:15;;;;;;;2.67;2.47;;;;;;;;;;5074464;28;20250;-79
2023/07/09 14:22:43;;;;;;;2.80;2.60;;;;;;;;;;5086876;28;20269;-79
2023/07/09 14:25:16;;;;;;;3.38;3.00;;;;;;;;;;5080636;28;20207;-79
2023/07/09 14:27:43;;;;;;;4.00;2.95;;;;;;;;;;5112255;28;20199;-79
2023/07/09 14:30:15;;;;;;;4.22;2.90;;;;;;;;;;5112013;28;20210;-79
2023/07/09 14:32:45;;;;;;;3.03;2.75;;;;;;;;;;5095407;28;20195;-80
2023/07/09 14:35:17;;;;;;;3.15;2.60;;;;;;;;;;5086051;28;20247;-80
2023/07/09 14:37:45;;;;;;;3.10;2.85;;;;;;;;;;5107634;28;20207;-79
2023/07/09 14:40:16;;;;;;;3.00;2.70;;;;;;;;;;5094153;28;20211;-79
2023/07/09 14:42:44;;;;;;;3.42;3.13;;;;;;;;;;5080290;28;20203;-79
2023/07/09 14:45:19;;;;;;;3.28;2.97;;;;;;;;;;5111470;28;20210;-80
2023/07/09 14:47:48;;;;;;;3.97;2.72;;;;;;;;;;5106854;28;20199;-80
2023/07/09 14:50:15;;;;;;;4.90;2.85;;;;;;;;;;5102460;28;20285;-81
2023/07/09 14:52:43;;;;;;;2.95;2.75;;;;;;;;;;5106246;28;20584;-81
2023/07/09 14:55:15;;;;;;;3.60;2.78;;;;;;;;;;5108297;28;20230;-81